Pennock, MN (56279)

8:44 PM CDT on July 24, 2014 (GMT -0500)
Lake Florida (KMNSPICE3) Elev 1129 ft | 45.25 °N, 95.07 °W | Change Station

Current weather conditions updated 3 minutes ago

Partly Cloudy
Partly Cloudy
69.0 °F
Feels Like 69.0 °F
N
2.0
Wind Variable Wind from SE
Gusts 3.0 mph

Tomorrow is forecast to be Warmer than today.

Today
High -- | Low -- °F
--% Chance of Precip.
Yesterday
High -- | Low -- °F
Precip. -- in
5:56 AM 8:57 PM
Waning Crescent, 3% visible
Pressure 29.91 in
Visibility 10.0 miles
Clouds Clear
Dew Point 61 °F
Humidity 76%
Rainfall 0.42 in
Snow Depth Not available.
UV 0.0 out of 12
Pollen 6.10 out of 12
Air Quality Not available.
Flu Activity Not available.
METAR KBDH 250135Z AUTO 13004KT 10SM CLR 21/16 A2991 RMK AO2

More Conditions Fewer Conditions

Pressure 29.91 in
Visibility 10.0 miles
Clouds Clear
Dew Point 61 °F
Humidity 76%
Rainfall 0.42 in
Snow Depth Not available.
UV 0.0 out of 12
Pollen 6.10 out of 12
Air Quality Not available.
Flu Activity Not available.
METAR KBDH 250135Z AUTO 13004KT 10SM CLR 21/16 A2991 RMK AO2

More Conditions Fewer Conditions

10-Day Weather Forecast

Almanac

Astronomy

Jul. 24, 2014 Rise Set
Actual Time 5:56 AM CDT 8:57 PM CDT
Civil Twilight 5:21 AM CDT 9:32 PM CDT
Nautical Twilight 4:36 AM CDT 10:16 PM CDT
Astronomical Twilight 3:42 AM CDT 11:09 PM CDT
Moon 4:06 AM CDT (7/24) 7:11 PM CDT (7/24)
Length of Visible Light 16h 10m
Length of Day
15h 00m
Tomorrow will be 2m 8s shorter.
Waning Crescent, 3% of the Moon is Illuminated
Today
Waning Crescent
Jul 26
New
Aug 3
First Quarter
Aug 10
Full
Aug 17
Last Quarter

Today's Extremes

State Highs State Lows

Community

WunderPhotos

Upload Photos

1,737,189 photos uploaded!

Nearby

Snow Depth

Station Depth Elevation
No new snow has been reported.

Earthquake Activity

City Distance Mag. Time & Date
No recent earthquake activity has been reported nearby.
Minimum magnitude displayed is 2.5.

Coastal Water Temperatures

Place Temperature
No Stations Reporting

Nearby Weather Stations

Station Location Temp. Dew Point Humidity Wind Precip. Elev Updated Type
Lake Florida, Spicer, MN 69.0 °F 61 °F 76% SE  at  2.0 mph 0.00 in / hr 1129 ft 8:40 PM CDT Normal
George Lake, Spicer, MN 68.8 °F 63 °F 81% SSE  at  0.0 mph 0.00 in / hr 1171 ft 8:42 PM CDT Rapid Fire
Willmar, Willmar, MN 68.3 °F 62 °F 79% ESE  at  3.0 mph 0.00 in / hr 1188 ft 8:33 PM CDT Normal
Sibley, New London, MN 67.5 °F 58 °F 72% East  at  0.0 mph - / hr 1260 ft 8:40 PM CDT Normal
SW of Prinsburg, Prinsburg, MN 68.8 °F 62 °F 80% South  at  6.0 mph 0.00 in / hr 1071 ft 8:40 PM CDT Normal

Show More Stations Show Fewer Stations